createdAt,value
2023-04-29T00:02:06.236Z,100942.91
2023-04-29T00:04:34.978Z,100939.41
2023-04-29T00:07:03.464Z,100946.00
2023-04-29T00:09:31.786Z,100952.16
2023-04-29T00:12:02.547Z,100957.59
2023-04-29T00:14:30.937Z,100944.56
2023-04-29T00:17:00.002Z,100961.13
2023-04-29T00:19:29.329Z,100959.38
2023-04-29T00:21:57.645Z,100959.97
2023-04-29T00:24:26.152Z,100961.97
2023-04-29T00:26:54.800Z,100964.63
2023-04-29T00:29:24.549Z,100972.94
2023-04-29T00:31:52.806Z,100965.03
2023-04-29T00:34:21.368Z,100982.47
2023-04-29T00:36:49.595Z,100979.56
2023-04-29T00:39:17.970Z,100984.88
2023-04-29T00:41:46.425Z,100980.34
2023-04-29T00:44:14.716Z,100986.31
2023-04-29T00:46:44.430Z,100985.31
2023-04-29T00:49:14.669Z,100992.53
2023-04-29T00:51:43.728Z,100979.41
2023-04-29T00:54:13.067Z,100994.69
2023-04-29T00:56:42.826Z,100994.94
2023-04-29T00:59:12.679Z,100992.06
2023-04-29T01:01:41.082Z,100999.28
2023-04-29T01:04:11.623Z,100996.28
2023-04-29T01:06:57.379Z,100997.34
2023-04-29T01:09:42.546Z,101006.72
2023-04-29T01:12:22.069Z,101007.31
2023-04-29T01:15:06.352Z,101006.41
2023-04-29T01:17:42.091Z,101013.75
2023-04-29T01:20:13.232Z,101012.66
2023-04-29T01:22:41.867Z,101010.91
2023-04-29T01:25:11.692Z,101017.72
2023-04-29T01:27:50.385Z,101020.88
2023-04-29T01:30:29.922Z,101021.94
2023-04-29T01:33:05.351Z,101028.56
2023-04-29T01:35:52.875Z,101027.41
2023-04-29T01:38:34.053Z,101027.59
2023-04-29T01:41:12.382Z,101029.41
2023-04-29T01:43:42.165Z,101037.53
2023-04-29T01:46:12.264Z,101034.53
2023-04-29T01:48:40.998Z,101033.63
2023-04-29T01:51:09.483Z,101029.69
2023-04-29T01:53:37.771Z,101035.16
2023-04-29T01:56:08.664Z,101036.31
2023-04-29T01:58:36.958Z,101037.78
2023-04-29T02:01:05.280Z,101041.72
2023-04-29T02:03:33.906Z,101039.41
2023-04-29T02:06:02.575Z,101054.41
2023-04-29T02:08:31.010Z,101055.31
2023-04-29T02:11:00.798Z,101051.72
2023-04-29T02:13:30.430Z,101054.00
2023-04-29T02:15:58.688Z,101053.75
2023-04-29T02:18:27.103Z,101063.06
2023-04-29T02:21:02.166Z,101064.75
2023-04-29T02:23:31.231Z,101059.72
2023-04-29T02:25:59.478Z,101078.34
2023-04-29T02:28:29.109Z,101075.31
2023-04-29T02:30:57.325Z,101075.41
2023-04-29T02:33:25.659Z,101072.81
2023-04-29T02:35:53.884Z,101074.47
2023-04-29T02:38:22.119Z,101074.19
2023-04-29T02:40:50.441Z,101081.16
2023-04-29T02:43:18.720Z,101081.81
2023-04-29T02:45:48.348Z,101087.56
2023-04-29T02:48:17.107Z,101090.50
2023-04-29T02:50:45.555Z,101086.53
2023-04-29T02:53:13.794Z,101089.31
2023-04-29T02:55:42.079Z,101092.38
2023-04-29T02:58:10.333Z,101100.16
2023-04-29T03:00:38.595Z,101103.16
2023-04-29T03:03:08.342Z,101095.13
2023-04-29T03:05:36.702Z,101106.56
2023-04-29T03:08:05.419Z,101100.44
2023-04-29T03:10:33.654Z,101108.28
2023-04-29T03:13:01.863Z,101110.72
2023-04-29T03:15:30.118Z,101105.25
2023-04-29T03:17:59.832Z,101107.50
2023-04-29T03:20:30.353Z,101115.44
2023-04-29T03:22:58.534Z,101119.28
2023-04-29T03:25:26.760Z,101126.66
2023-04-29T03:27:55.006Z,101133.97
2023-04-29T03:30:23.294Z,101127.25
2023-04-29T03:32:51.596Z,101129.16
2023-04-29T03:35:20.085Z,101130.25
2023-04-29T03:37:49.648Z,101126.69
2023-04-29T03:40:18.073Z,101128.16
2023-04-29T03:42:46.389Z,101130.56
2023-04-29T03:45:14.963Z,101133.09
2023-04-29T03:47:43.586Z,101136.03
2023-04-29T03:50:12.340Z,101128.56
2023-04-29T03:52:40.760Z,101135.78
2023-04-29T03:55:11.655Z,101139.22
2023-04-29T03:57:42.129Z,101138.31
2023-04-29T04:00:12.190Z,101138.03
2023-04-29T04:02:40.568Z,101137.50
2023-04-29T04:05:10.931Z,101144.72
2023-04-29T04:07:39.305Z,101145.63
2023-04-29T04:10:10.309Z,101141.53
2023-04-29T04:12:38.677Z,101147.81
2023-04-29T04:15:07.997Z,101153.19
2023-04-29T04:17:36.226Z,101157.72
2023-04-29T04:20:05.372Z,101158.00
2023-04-29T04:22:33.591Z,101160.00
2023-04-29T04:25:01.884Z,101161.72
2023-04-29T04:27:31.623Z,101162.00
2023-04-29T04:29:59.829Z,101166.72
2023-04-29T04:32:28.504Z,101171.13
2023-04-29T04:34:57.331Z,101167.91
2023-04-29T04:37:25.631Z,101177.78
2023-04-29T04:39:54.140Z,101175.53
2023-04-29T04:42:24.096Z,101177.34
2023-04-29T04:44:54.990Z,101180.06
2023-04-29T04:47:23.277Z,101195.41
2023-04-29T04:49:52.959Z,101186.50
2023-04-29T04:52:22.388Z,101190.75
2023-04-29T04:54:50.777Z,101197.66
2023-04-29T04:57:19.024Z,101199.94
2023-04-29T04:59:47.307Z,101203.09
2023-04-29T05:02:16.966Z,101196.50
2023-04-29T05:04:45.866Z,101197.94
2023-04-29T05:07:14.112Z,101198.19
2023-04-29T05:09:42.321Z,101205.13
2023-04-29T05:12:10.581Z,101204.13
2023-04-29T05:14:38.811Z,101208.41
2023-04-29T05:17:07.152Z,101208.75
2023-04-29T05:19:36.815Z,101219.75
2023-04-29T05:22:05.039Z,101222.63
2023-04-29T05:24:33.264Z,101230.19
2023-04-29T05:27:01.658Z,101224.41
2023-04-29T05:29:29.879Z,101235.03
2023-04-29T05:31:58.361Z,101231.66
2023-04-29T05:34:26.770Z,101237.66
2023-04-29T05:36:57.418Z,101236.72
2023-04-29T05:39:26.754Z,101247.22
2023-04-29T05:41:55.016Z,101252.28
2023-04-29T05:44:23.212Z,101247.19
2023-04-29T05:46:51.984Z,101253.56
2023-04-29T05:49:20.285Z,101257.75
2023-04-29T05:51:48.521Z,101253.69
2023-04-29T05:54:18.136Z,101261.47
2023-04-29T05:56:46.597Z,101252.41
2023-04-29T05:59:14.832Z,101263.13
2023-04-29T06:01:43.077Z,101272.56
2023-04-29T06:04:11.454Z,101269.91
2023-04-29T06:06:39.914Z,101277.56
2023-04-29T06:09:16.333Z,101278.22
2023-04-29T06:11:53.956Z,101280.78
2023-04-29T06:14:22.161Z,101281.91
2023-04-29T06:16:50.721Z,101297.47
2023-04-29T06:19:19.297Z,101296.72
2023-04-29T06:21:47.527Z,101293.66
2023-04-29T06:24:15.737Z,101298.72
2023-04-29T06:26:44.314Z,101308.41
2023-04-29T06:29:13.934Z,101315.59
2023-04-29T06:31:42.269Z,101319.19
2023-04-29T06:34:10.853Z,101318.09
2023-04-29T06:36:39.114Z,101312.97
2023-04-29T06:39:07.335Z,101311.78
2023-04-29T06:41:36.872Z,101326.03
2023-04-29T06:44:05.237Z,101325.25
2023-04-29T06:46:34.907Z,101323.78
2023-04-29T06:49:03.214Z,101327.38
2023-04-29T06:51:32.291Z,101326.19
2023-04-29T06:54:00.560Z,101332.63
2023-04-29T06:56:28.816Z,101336.06
2023-04-29T06:58:57.133Z,101335.34
2023-04-29T07:01:25.671Z,101342.25
2023-04-29T07:03:55.455Z,101347.53
2023-04-29T07:06:23.899Z,101348.09
2023-04-29T07:08:52.846Z,101355.38
2023-04-29T07:11:22.023Z,101350.34
2023-04-29T07:13:50.256Z,101357.53
2023-04-29T07:16:20.947Z,101370.38
2023-04-29T07:18:49.538Z,101365.09
2023-04-29T07:21:19.158Z,101367.19
2023-04-29T07:23:47.832Z,101370.69
2023-04-29T07:26:18.183Z,101372.88
2023-04-29T07:28:46.883Z,101389.72
2023-04-29T07:31:15.343Z,101380.38
2023-04-29T07:33:43.828Z,101383.88
2023-04-29T07:36:12.686Z,101393.69
2023-04-29T07:38:42.313Z,101397.78
2023-04-29T07:41:10.505Z,101402.88
2023-04-29T07:43:40.239Z,101403.13
2023-04-29T07:46:09.957Z,101403.72
2023-04-29T07:48:39.499Z,101410.66
2023-04-29T07:51:08.873Z,101410.31
2023-04-29T07:53:37.147Z,101401.28
2023-04-29T07:56:09.649Z,101410.13
2023-04-29T07:58:37.919Z,101411.66
2023-04-29T08:01:10.383Z,101407.91
2023-04-29T08:03:41.205Z,101421.94
2023-04-29T08:06:10.533Z,101428.38
2023-04-29T08:08:38.970Z,101431.75
2023-04-29T08:11:08.680Z,101427.81
2023-04-29T08:13:36.902Z,101439.25
2023-04-29T08:16:05.208Z,101431.06
2023-04-29T08:18:33.571Z,101439.06
2023-04-29T08:21:01.774Z,101436.56
2023-04-29T08:23:30.178Z,101440.09
2023-04-29T08:25:58.548Z,101441.84
2023-04-29T08:28:28.320Z,101445.09
2023-04-29T08:30:56.651Z,101449.41
2023-04-29T08:33:25.098Z,101454.81
2023-04-29T08:36:00.471Z,101457.47
2023-04-29T08:38:29.009Z,101459.22
2023-04-29T08:40:57.439Z,101456.28
2023-04-29T08:43:27.978Z,101464.91
2023-04-29T08:45:59.384Z,101463.41
2023-04-29T08:48:29.001Z,101465.03
2023-04-29T08:50:58.473Z,101465.19
2023-04-29T08:53:26.864Z,101471.69
2023-04-29T08:55:58.548Z,101471.72
2023-04-29T08:58:30.977Z,101471.91
2023-04-29T09:00:59.260Z,101483.47
2023-04-29T09:03:36.113Z,101489.22
2023-04-29T09:06:06.729Z,101487.66
2023-04-29T09:08:35.276Z,101488.91
2023-04-29T09:11:04.324Z,101489.75
2023-04-29T09:13:34.282Z,101491.47
2023-04-29T09:16:02.605Z,101494.59
2023-04-29T09:18:51.098Z,101498.78
2023-04-29T09:21:22.805Z,101495.53
2023-04-29T09:23:53.850Z,101494.91
2023-04-29T09:26:22.415Z,101500.19
2023-04-29T09:29:09.398Z,101503.75
2023-04-29T09:31:39.771Z,101504.25
2023-04-29T09:34:08.634Z,101514.00
2023-04-29T09:36:38.923Z,101513.06
2023-04-29T09:39:11.575Z,101517.94
2023-04-29T09:42:02.601Z,101515.94
2023-04-29T09:44:35.925Z,101522.56
2023-04-29T09:47:05.887Z,101518.91
2023-04-29T09:49:37.537Z,101531.63
2023-04-29T09:52:08.865Z,101525.19
2023-04-29T09:54:38.627Z,101523.09
2023-04-29T09:57:09.181Z,101524.91
2023-04-29T09:59:40.360Z,101532.09
2023-04-29T10:02:15.450Z,101523.59
2023-04-29T10:04:47.626Z,101540.44
2023-04-29T10:07:17.583Z,101538.44
2023-04-29T10:09:47.698Z,101537.75
2023-04-29T10:12:18.795Z,101544.38
2023-04-29T10:14:56.285Z,101547.63
2023-04-29T10:17:33.869Z,101541.78
2023-04-29T10:20:07.541Z,101547.59
2023-04-29T10:22:46.608Z,101552.16
2023-04-29T10:25:17.095Z,101550.44
2023-04-29T10:27:46.418Z,101553.09
2023-04-29T10:30:19.089Z,101552.31
2023-04-29T10:32:51.660Z,101554.88
2023-04-29T10:35:25.865Z,101552.88
2023-04-29T10:37:57.228Z,101552.31
2023-04-29T10:40:37.517Z,101551.84
2023-04-29T10:43:07.827Z,101546.53
2023-04-29T10:45:38.542Z,101560.88
2023-04-29T10:48:15.914Z,101557.03
2023-04-29T10:51:03.549Z,101565.38
2023-04-29T10:53:32.061Z,101563.00
2023-04-29T10:56:06.839Z,101557.75
2023-04-29T10:58:44.049Z,101567.44
2023-04-29T11:01:15.953Z,101559.56
2023-04-29T11:03:59.396Z,101566.97
2023-04-29T11:06:41.604Z,101569.38
2023-04-29T11:09:14.457Z,101569.53
2023-04-29T11:11:49.839Z,101568.66
2023-04-29T11:14:26.307Z,101572.66
2023-04-29T11:16:58.981Z,101570.78
2023-04-29T11:19:32.889Z,101565.91
2023-04-29T11:22:15.562Z,101561.81
2023-04-29T11:24:56.694Z,101560.09
2023-04-29T11:27:26.768Z,101568.41
2023-04-29T11:29:58.799Z,101564.91
2023-04-29T11:32:30.351Z,101571.97
2023-04-29T11:35:10.493Z,101563.56
2023-04-29T11:37:39.336Z,101560.53
2023-04-29T11:40:09.887Z,101569.28
2023-04-29T11:42:42.813Z,101575.72
2023-04-29T11:45:12.390Z,101572.66
2023-04-29T11:47:46.157Z,101562.66
2023-04-29T11:50:17.804Z,101561.81
2023-04-29T11:52:48.721Z,101561.28
2023-04-29T11:55:18.283Z,101568.84
2023-04-29T11:57:49.909Z,101576.28
2023-04-29T12:00:18.464Z,101573.25
2023-04-29T12:02:48.738Z,101570.75
2023-04-29T12:05:19.325Z,101576.28
2023-04-29T12:07:50.197Z,101575.72
2023-04-29T12:10:18.614Z,101569.13
2023-04-29T12:12:47.468Z,101576.03
2023-04-29T12:15:16.240Z,101571.03
2023-04-29T12:17:46.454Z,101569.69
2023-04-29T12:20:16.989Z,101574.59
2023-04-29T12:22:45.265Z,101562.38
2023-04-29T12:25:13.843Z,101562.47
2023-04-29T12:27:43.434Z,101564.44
2023-04-29T12:30:13.048Z,101558.84
2023-04-29T12:32:41.657Z,101566.47
2023-04-29T12:35:18.914Z,101568.72
2023-04-29T12:37:50.805Z,101567.25
2023-04-29T12:40:20.695Z,101565.59
2023-04-29T12:42:49.460Z,101566.78
2023-04-29T12:45:32.950Z,101572.97
2023-04-29T12:48:02.502Z,101569.78
2023-04-29T12:50:35.097Z,101568.56
2023-04-29T12:53:04.968Z,101562.28
2023-04-29T12:55:35.448Z,101570.69
2023-04-29T12:58:04.312Z,101570.09
2023-04-29T13:00:32.898Z,101574.50
2023-04-29T13:03:01.403Z,101576.44
2023-04-29T13:05:30.033Z,101569.41
2023-04-29T13:07:59.597Z,101577.41
2023-04-29T13:10:29.067Z,101575.19
2023-04-29T13:12:57.343Z,101579.59
2023-04-29T13:15:26.758Z,101581.00
2023-04-29T13:17:55.729Z,101594.53
2023-04-29T13:20:24.067Z,101582.00
2023-04-29T13:22:52.490Z,101587.88
2023-04-29T13:25:22.148Z,101585.25
2023-04-29T13:27:50.628Z,101586.88
2023-04-29T13:30:19.039Z,101594.78
2023-04-29T13:32:53.823Z,101584.75
2023-04-29T13:35:23.580Z,101585.94
2023-04-29T13:37:52.397Z,101594.19
2023-04-29T13:40:22.157Z,101589.06
2023-04-29T13:42:57.299Z,101591.81
2023-04-29T13:45:37.924Z,101592.31
2023-04-29T13:48:21.064Z,101590.97
2023-04-29T13:51:33.270Z,101597.41
2023-04-29T13:54:41.429Z,101598.97
2023-04-29T14:02:21.417Z,101596.88
2023-04-29T14:04:25.985Z,101597.72
2023-04-29T14:06:54.616Z,101594.50
2023-04-29T14:09:23.202Z,101586.19
2023-04-29T14:11:52.827Z,101593.16
2023-04-29T14:14:21.277Z,101601.19
2023-04-29T14:16:49.485Z,101598.94
2023-04-29T14:19:17.763Z,101603.50
2023-04-29T14:21:46.012Z,101600.38
2023-04-29T14:24:14.310Z,101603.53
2023-04-29T14:26:43.201Z,101600.38
2023-04-29T14:29:12.855Z,101595.47
2023-04-29T14:31:41.748Z,101603.94
2023-04-29T14:34:10.011Z,101606.16
2023-04-29T14:36:38.318Z,101610.25
2023-04-29T14:39:06.544Z,101607.78
2023-04-29T14:41:34.791Z,101609.41
2023-04-29T14:44:03.094Z,101609.69
2023-04-29T14:46:33.576Z,101619.69
2023-04-29T14:49:01.959Z,101623.72
2023-04-29T14:51:31.126Z,101620.06
2023-04-29T14:53:59.364Z,101622.78
2023-04-29T14:56:27.845Z,101621.16
2023-04-29T14:58:56.400Z,101622.84
2023-04-29T15:01:24.683Z,101630.22
2023-04-29T15:03:54.652Z,101637.69
2023-04-29T15:06:23.098Z,101637.22
2023-04-29T15:08:51.351Z,101634.75
2023-04-29T15:11:19.602Z,101633.81
2023-04-29T15:13:49.087Z,101635.44
2023-04-29T15:16:17.430Z,101634.03
2023-04-29T15:18:46.550Z,101616.84
2023-04-29T15:21:16.482Z,101632.28
2023-04-29T15:23:44.713Z,101626.06
2023-04-29T15:26:12.949Z,101624.00
2023-04-29T15:28:41.596Z,101627.53
2023-04-29T15:31:10.015Z,101632.72
2023-04-29T15:33:38.250Z,101634.91
2023-04-29T15:36:08.296Z,101627.00
2023-04-29T15:38:37.889Z,101629.69
2023-04-29T15:41:06.859Z,101627.72
2023-04-29T15:43:35.671Z,101631.47
2023-04-29T15:46:04.016Z,101630.22
2023-04-29T15:48:32.259Z,101625.81
2023-04-29T15:51:00.513Z,101626.72
2023-04-29T15:53:28.721Z,101632.69
2023-04-29T15:55:58.332Z,101633.53
2023-04-29T15:58:26.780Z,101630.91
2023-04-29T16:00:55.033Z,101635.38
2023-04-29T16:03:23.365Z,101639.47
2023-04-29T16:05:51.960Z,101641.41
2023-04-29T16:08:20.459Z,101635.56
2023-04-29T16:10:49.705Z,101648.63
2023-04-29T16:13:19.485Z,101643.75
2023-04-29T16:15:47.819Z,101643.94
2023-04-29T16:18:17.554Z,101643.84
2023-04-29T16:20:46.031Z,101651.66
2023-04-29T16:23:14.300Z,101643.53
2023-04-29T16:25:43.017Z,101643.53
2023-04-29T16:28:11.252Z,101652.25
2023-04-29T16:30:40.836Z,101655.63
2023-04-29T16:33:09.277Z,101649.13
2023-04-29T16:35:38.178Z,101644.25
2023-04-29T16:38:06.990Z,101648.50
2023-04-29T16:40:35.413Z,101645.78
2023-04-29T16:43:03.656Z,101652.50
2023-04-29T16:45:32.255Z,101651.25
2023-04-29T16:48:03.106Z,101649.06
2023-04-29T16:50:31.971Z,101657.63
2023-04-29T16:53:00.180Z,101649.50
2023-04-29T16:55:28.468Z,101656.31
2023-04-29T16:57:56.810Z,101660.53
2023-04-29T17:00:25.188Z,101657.34
2023-04-29T17:02:54.183Z,101656.72
2023-04-29T17:05:23.911Z,101652.09
2023-04-29T17:07:52.351Z,101655.25
2023-04-29T17:10:20.845Z,101661.94
2023-04-29T17:12:49.047Z,101658.63
2023-04-29T17:15:17.613Z,101661.19
2023-04-29T17:17:46.719Z,101663.78
2023-04-29T17:20:15.532Z,101666.75
2023-04-29T17:22:45.182Z,101663.75
2023-04-29T17:25:13.799Z,101664.66
2023-04-29T17:27:43.999Z,101664.53
2023-04-29T17:30:13.931Z,101659.31
2023-04-29T17:32:44.310Z,101660.44
2023-04-29T17:35:12.705Z,101665.88
2023-04-29T17:37:40.962Z,101663.47
2023-04-29T17:40:11.603Z,101668.84
2023-04-29T17:42:39.886Z,101663.88
2023-04-29T17:45:10.173Z,101661.28
2023-04-29T17:47:38.475Z,101663.53
2023-04-29T17:50:08.298Z,101667.00
2023-04-29T17:52:36.558Z,101670.25
2023-04-29T17:55:05.370Z,101672.59
2023-04-29T17:57:34.971Z,101663.06
2023-04-29T18:00:03.564Z,101670.66
2023-04-29T18:02:31.800Z,101673.63
2023-04-29T18:05:00.148Z,101678.44
2023-04-29T18:07:28.348Z,101671.75
2023-04-29T18:09:56.803Z,101682.69
2023-04-29T18:12:25.599Z,101680.97
2023-04-29T18:14:55.242Z,101678.69
2023-04-29T18:17:23.798Z,101680.38
2023-04-29T18:19:52.452Z,101677.84
2023-04-29T18:22:20.908Z,101680.13
2023-04-29T18:24:49.913Z,101683.16
2023-04-29T18:27:18.182Z,101669.75
2023-04-29T18:29:46.494Z,101680.03
2023-04-29T18:32:16.106Z,101681.47
2023-04-29T18:34:44.423Z,101688.16
2023-04-29T18:37:12.719Z,101682.00
2023-04-29T18:39:40.944Z,101688.69
2023-04-29T18:42:09.611Z,101681.50
2023-04-29T18:44:38.978Z,101683.00
2023-04-29T18:47:07.202Z,101681.59
2023-04-29T18:49:38.339Z,101679.66
2023-04-29T18:52:06.770Z,101683.88
2023-04-29T18:54:35.296Z,101683.28
2023-04-29T18:57:03.892Z,101691.66
2023-04-29T18:59:35.837Z,101691.31
2023-04-29T19:02:06.131Z,101690.47
2023-04-29T19:04:36.567Z,101691.84
2023-04-29T19:07:06.080Z,101693.50
2023-04-29T19:09:34.524Z,101696.56
2023-04-29T19:12:04.640Z,101701.56
2023-04-29T19:14:34.180Z,101701.81
2023-04-29T19:17:02.832Z,101699.22
2023-04-29T19:19:31.339Z,101709.19
2023-04-29T19:22:01.399Z,101710.09
2023-04-29T19:24:29.664Z,101714.41
2023-04-29T19:26:57.836Z,101725.16
2023-04-29T19:29:26.874Z,101720.91
2023-04-29T19:31:55.124Z,101708.09
2023-04-29T19:34:23.424Z,101717.19
2023-04-29T19:36:51.742Z,101719.63
2023-04-29T19:39:21.375Z,101711.78
2023-04-29T19:41:49.619Z,101718.72
2023-04-29T19:44:17.841Z,101722.34
2023-04-29T19:46:46.124Z,101717.34
2023-04-29T19:49:14.737Z,101719.41
2023-04-29T19:51:43.029Z,101718.06
2023-04-29T19:54:11.635Z,101722.53
2023-04-29T19:56:41.199Z,101718.63
2023-04-29T19:59:09.499Z,101721.41
2023-04-29T20:01:37.753Z,101727.84
2023-04-29T20:04:06.018Z,101725.06
2023-04-29T20:06:35.180Z,101731.47
2023-04-29T20:09:03.479Z,101738.66
2023-04-29T20:11:31.757Z,101740.59
2023-04-29T20:14:01.395Z,101746.66
2023-04-29T20:16:31.477Z,101749.13
2023-04-29T20:18:59.778Z,101754.84
2023-04-29T20:21:28.604Z,101748.94
2023-04-29T20:23:57.156Z,101755.84
2023-04-29T20:26:25.429Z,101758.88
2023-04-29T20:28:53.756Z,101759.13
2023-04-29T20:31:23.389Z,101748.84
2023-04-29T20:33:51.655Z,101758.88
2023-04-29T20:36:20.953Z,101762.16
2023-04-29T20:38:49.250Z,101766.91
2023-04-29T20:41:17.469Z,101767.03
2023-04-29T20:43:45.744Z,101768.88
2023-04-29T20:46:14.163Z,101775.88
2023-04-29T20:48:43.732Z,101765.00
2023-04-29T20:51:13.554Z,101778.94
2023-04-29T20:53:41.810Z,101782.81
2023-04-29T20:56:11.145Z,101784.06
2023-04-29T20:58:39.384Z,101786.50
2023-04-29T21:01:07.971Z,101787.09
2023-04-29T21:03:36.353Z,101793.09
2023-04-29T21:06:06.288Z,101790.94
2023-04-29T21:08:34.603Z,101793.22
2023-04-29T21:11:02.891Z,101794.22
2023-04-29T21:13:31.188Z,101788.28
2023-04-29T21:15:59.531Z,101789.75
2023-04-29T21:18:27.975Z,101788.41
2023-04-29T21:20:56.358Z,101787.31
2023-04-29T21:23:26.015Z,101805.41
2023-04-29T21:25:54.244Z,101797.88
2023-04-29T21:28:22.456Z,101803.94
2023-04-29T21:30:50.926Z,101807.06
2023-04-29T21:33:19.201Z,101807.34
2023-04-29T21:35:51.246Z,101811.44
2023-04-29T21:38:19.742Z,101811.09
2023-04-29T21:40:49.674Z,101817.38
2023-04-29T21:43:19.242Z,101804.81
2023-04-29T21:45:47.661Z,101815.94
2023-04-29T21:48:18.049Z,101815.34
2023-04-29T21:50:46.808Z,101822.22
2023-04-29T21:53:16.645Z,101819.09
2023-04-29T21:55:45.096Z,101823.06
2023-04-29T21:58:16.086Z,101826.69
2023-04-29T22:00:58.016Z,101826.34
2023-04-29T22:03:26.557Z,101835.06
2023-04-29T22:05:54.905Z,101827.94
2023-04-29T22:08:23.367Z,101835.56
2023-04-29T22:10:51.700Z,101836.06
2023-04-29T22:13:21.334Z,101836.41
2023-04-29T22:15:49.611Z,101842.72
2023-04-29T22:18:17.855Z,101853.22
2023-04-29T22:20:46.266Z,101838.81
2023-04-29T22:23:14.818Z,101847.66
2023-04-29T22:25:43.087Z,101845.09
2023-04-29T22:28:11.311Z,101842.69
2023-04-29T22:30:42.878Z,101845.47
2023-04-29T22:33:11.259Z,101851.41
2023-04-29T22:35:39.591Z,101851.41
2023-04-29T22:38:07.911Z,101844.28
2023-04-29T22:40:37.321Z,101858.06
2023-04-29T22:43:05.787Z,101857.22
2023-04-29T22:45:34.163Z,101859.66
2023-04-29T22:48:03.853Z,101854.81
2023-04-29T22:50:32.068Z,101859.41
2023-04-29T22:53:00.300Z,101859.03
2023-04-29T22:55:28.522Z,101865.44
2023-04-29T22:57:56.758Z,101863.75
2023-04-29T23:00:25.007Z,101864.13
2023-04-29T23:02:53.326Z,101872.47
2023-04-29T23:05:23.037Z,101874.72
2023-04-29T23:07:51.254Z,101882.72
2023-04-29T23:10:19.462Z,101893.38
2023-04-29T23:12:47.714Z,101892.41
2023-04-29T23:15:15.954Z,101890.09
2023-04-29T23:17:44.192Z,101895.13
2023-04-29T23:20:14.198Z,101888.59
2023-04-29T23:22:43.799Z,101890.31
2023-04-29T23:25:12.010Z,101897.16
2023-04-29T23:27:40.313Z,101900.78
2023-04-29T23:30:10.421Z,101899.13
2023-04-29T23:32:38.740Z,101895.50
2023-04-29T23:35:08.092Z,101891.31
2023-04-29T23:37:36.448Z,101895.03
2023-04-29T23:40:09.193Z,101890.59
2023-04-29T23:42:37.473Z,101892.91
2023-04-29T23:45:06.736Z,101894.94
2023-04-29T23:47:35.046Z,101903.97
2023-04-29T23:50:04.042Z,101891.53
2023-04-29T23:52:32.389Z,101895.13
2023-04-29T23:55:00.674Z,101891.53
2023-04-29T23:57:30.290Z,101894.88
2023-04-29T23:59:59.574Z,101896.81
